sensor_id;sensor_type;location;lat;lon;timestamp;P1;durP1;ratioP1;P2;durP2;ratioP2
45476;SDS011;31958;51.756;-2.556;2023-01-29T00:01:55;21.23;;;9.75;;
45476;SDS011;31958;51.756;-2.556;2023-01-29T00:04:20;18.20;;;8.90;;
45476;SDS011;31958;51.756;-2.556;2023-01-29T00:06:46;12.52;;;6.30;;
45476;SDS011;31958;51.756;-2.556;2023-01-29T00:09:11;8.63;;;4.78;;
45476;SDS011;31958;51.756;-2.556;2023-01-29T00:11:38;15.70;;;5.93;;
45476;SDS011;31958;51.756;-2.556;2023-01-29T00:14:03;17.33;;;5.43;;
45476;SDS011;31958;51.756;-2.556;2023-01-29T00:16:29;11.30;;;4.80;;
45476;SDS011;31958;51.756;-2.556;2023-01-29T00:18:54;11.27;;;5.65;;
45476;SDS011;31958;51.756;-2.556;2023-01-29T00:21:20;17.15;;;6.05;;
45476;SDS011;31958;51.756;-2.556;2023-01-29T00:23:46;13.55;;;6.32;;
45476;SDS011;31958;51.756;-2.556;2023-01-29T00:26:12;17.40;;;7.03;;
45476;SDS011;31958;51.756;-2.556;2023-01-29T00:28:37;16.92;;;6.30;;
45476;SDS011;31958;51.756;-2.556;2023-01-29T00:31:22;13.05;;;6.10;;
45476;SDS011;31958;51.756;-2.556;2023-01-29T00:33:48;13.23;;;5.25;;
45476;SDS011;31958;51.756;-2.556;2023-01-29T00:36:14;12.88;;;5.75;;
45476;SDS011;31958;51.756;-2.556;2023-01-29T00:38:40;15.30;;;6.15;;
45476;SDS011;31958;51.756;-2.556;2023-01-29T00:41:10;17.02;;;6.47;;
45476;SDS011;31958;51.756;-2.556;2023-01-29T00:43:55;22.52;;;7.88;;
45476;SDS011;31958;51.756;-2.556;2023-01-29T00:49:05;11.00;;;5.55;;
45476;SDS011;31958;51.756;-2.556;2023-01-29T00:51:31;13.77;;;6.38;;
45476;SDS011;31958;51.756;-2.556;2023-01-29T00:53:56;14.30;;;6.78;;
45476;SDS011;31958;51.756;-2.556;2023-01-29T00:56:27;13.50;;;7.15;;
45476;SDS011;31958;51.756;-2.556;2023-01-29T00:58:53;12.30;;;6.45;;
45476;SDS011;31958;51.756;-2.556;2023-01-29T01:01:19;12.50;;;6.65;;
45476;SDS011;31958;51.756;-2.556;2023-01-29T01:04:05;11.20;;;6.32;;
45476;SDS011;31958;51.756;-2.556;2023-01-29T01:06:31;16.00;;;6.75;;
45476;SDS011;31958;51.756;-2.556;2023-01-29T01:08:56;15.43;;;6.65;;
45476;SDS011;31958;51.756;-2.556;2023-01-29T01:11:40;16.98;;;7.43;;
45476;SDS011;31958;51.756;-2.556;2023-01-29T01:14:06;17.20;;;7.38;;
45476;SDS011;31958;51.756;-2.556;2023-01-29T01:16:31;15.00;;;7.68;;
45476;SDS011;31958;51.756;-2.556;2023-01-29T01:18:56;20.67;;;7.63;;
45476;SDS011;31958;51.756;-2.556;2023-01-29T01:21:22;11.10;;;5.82;;
45476;SDS011;31958;51.756;-2.556;2023-01-29T01:23:47;15.02;;;6.57;;
45476;SDS011;31958;51.756;-2.556;2023-01-29T01:26:15;13.55;;;5.72;;
45476;SDS011;31958;51.756;-2.556;2023-01-29T01:28:41;10.82;;;5.40;;
45476;SDS011;31958;51.756;-2.556;2023-01-29T01:31:07;12.18;;;5.30;;
45476;SDS011;31958;51.756;-2.556;2023-01-29T01:33:37;11.57;;;5.38;;
45476;SDS011;31958;51.756;-2.556;2023-01-29T01:36:03;15.10;;;6.07;;
45476;SDS011;31958;51.756;-2.556;2023-01-29T01:38:29;10.38;;;6.13;;
45476;SDS011;31958;51.756;-2.556;2023-01-29T01:40:54;16.48;;;8.40;;
45476;SDS011;31958;51.756;-2.556;2023-01-29T01:43:19;15.43;;;7.55;;
45476;SDS011;31958;51.756;-2.556;2023-01-29T01:45:45;18.40;;;8.05;;
45476;SDS011;31958;51.756;-2.556;2023-01-29T01:48:23;16.80;;;7.07;;
45476;SDS011;31958;51.756;-2.556;2023-01-29T01:50:50;14.45;;;6.80;;
45476;SDS011;31958;51.756;-2.556;2023-01-29T01:53:28;13.10;;;5.65;;
45476;SDS011;31958;51.756;-2.556;2023-01-29T01:56:03;9.65;;;4.97;;
45476;SDS011;31958;51.756;-2.556;2023-01-29T01:58:48;12.82;;;5.38;;
45476;SDS011;31958;51.756;-2.556;2023-01-29T02:01:19;12.68;;;5.50;;
45476;SDS011;31958;51.756;-2.556;2023-01-29T02:04:00;8.38;;;4.82;;
45476;SDS011;31958;51.756;-2.556;2023-01-29T02:06:47;10.18;;;5.05;;
45476;SDS011;31958;51.756;-2.556;2023-01-29T02:09:38;14.32;;;4.90;;
45476;SDS011;31958;51.756;-2.556;2023-01-29T02:12:06;10.25;;;4.45;;
45476;SDS011;31958;51.756;-2.556;2023-01-29T02:14:34;8.60;;;5.05;;
45476;SDS011;31958;51.756;-2.556;2023-01-29T02:17:03;21.83;;;5.25;;
45476;SDS011;31958;51.756;-2.556;2023-01-29T02:30:35;10.35;;;4.68;;
45476;SDS011;31958;51.756;-2.556;2023-01-29T02:35:51;10.50;;;5.15;;
45476;SDS011;31958;51.756;-2.556;2023-01-29T02:38:35;13.10;;;5.60;;
45476;SDS011;31958;51.756;-2.556;2023-01-29T02:41:38;10.30;;;4.97;;
45476;SDS011;31958;51.756;-2.556;2023-01-29T02:47:08;23.95;;;10.25;;
45476;SDS011;31958;51.756;-2.556;2023-01-29T02:49:59;22.58;;;9.32;;
45476;SDS011;31958;51.756;-2.556;2023-01-29T02:55:41;21.58;;;9.48;;
45476;SDS011;31958;51.756;-2.556;2023-01-29T03:00:58;24.00;;;9.98;;
45476;SDS011;31958;51.756;-2.556;2023-01-29T03:03:31;18.02;;;8.70;;
45476;SDS011;31958;51.756;-2.556;2023-01-29T03:06:11;15.02;;;7.70;;
45476;SDS011;31958;51.756;-2.556;2023-01-29T03:11:18;13.32;;;6.22;;
45476;SDS011;31958;51.756;-2.556;2023-01-29T03:13:45;10.52;;;5.10;;
45476;SDS011;31958;51.756;-2.556;2023-01-29T03:21:43;7.78;;;4.88;;
45476;SDS011;31958;51.756;-2.556;2023-01-29T03:30:53;15.20;;;5.38;;
45476;SDS011;31958;51.756;-2.556;2023-01-29T03:33:41;14.18;;;5.00;;
45476;SDS011;31958;51.756;-2.556;2023-01-29T03:36:26;14.20;;;5.43;;
45476;SDS011;31958;51.756;-2.556;2023-01-29T03:39:02;8.02;;;4.88;;
45476;SDS011;31958;51.756;-2.556;2023-01-29T03:41:35;8.82;;;5.07;;
45476;SDS011;31958;51.756;-2.556;2023-01-29T03:46:41;14.63;;;5.32;;
45476;SDS011;31958;51.756;-2.556;2023-01-29T03:50:04;12.25;;;5.53;;
45476;SDS011;31958;51.756;-2.556;2023-01-29T03:52:39;11.55;;;5.40;;
45476;SDS011;31958;51.756;-2.556;2023-01-29T03:57:41;8.25;;;4.85;;
45476;SDS011;31958;51.756;-2.556;2023-01-29T04:00:19;11.15;;;5.40;;
45476;SDS011;31958;51.756;-2.556;2023-01-29T04:03:08;11.02;;;4.85;;
45476;SDS011;31958;51.756;-2.556;2023-01-29T04:05:50;13.05;;;5.25;;
45476;SDS011;31958;51.756;-2.556;2023-01-29T04:08:29;15.45;;;5.82;;
45476;SDS011;31958;51.756;-2.556;2023-01-29T04:10:58;12.05;;;5.50;;
45476;SDS011;31958;51.756;-2.556;2023-01-29T04:13:24;10.52;;;5.07;;
45476;SDS011;31958;51.756;-2.556;2023-01-29T04:15:57;10.23;;;5.10;;
45476;SDS011;31958;51.756;-2.556;2023-01-29T04:18:24;11.10;;;5.30;;
45476;SDS011;31958;51.756;-2.556;2023-01-29T04:20:49;16.25;;;4.75;;
45476;SDS011;31958;51.756;-2.556;2023-01-29T04:23:19;9.57;;;4.75;;
45476;SDS011;31958;51.756;-2.556;2023-01-29T04:25:52;8.57;;;4.57;;
45476;SDS011;31958;51.756;-2.556;2023-01-29T04:28:43;10.80;;;5.53;;
45476;SDS011;31958;51.756;-2.556;2023-01-29T04:31:11;10.37;;;5.17;;
45476;SDS011;31958;51.756;-2.556;2023-01-29T04:33:41;19.00;;;4.72;;
45476;SDS011;31958;51.756;-2.556;2023-01-29T04:36:16;13.73;;;4.97;;
45476;SDS011;31958;51.756;-2.556;2023-01-29T04:44:08;14.75;;;5.38;;
45476;SDS011;31958;51.756;-2.556;2023-01-29T04:46:56;19.02;;;5.40;;
45476;SDS011;31958;51.756;-2.556;2023-01-29T04:52:24;11.30;;;5.05;;
45476;SDS011;31958;51.756;-2.556;2023-01-29T04:58:05;10.55;;;4.68;;
45476;SDS011;31958;51.756;-2.556;2023-01-29T05:00:39;10.55;;;5.30;;
45476;SDS011;31958;51.756;-2.556;2023-01-29T05:03:06;8.70;;;4.68;;
45476;SDS011;31958;51.756;-2.556;2023-01-29T05:05:33;9.18;;;4.93;;
45476;SDS011;31958;51.756;-2.556;2023-01-29T05:07:59;11.50;;;4.63;;
45476;SDS011;31958;51.756;-2.556;2023-01-29T05:10:25;15.07;;;4.78;;
45476;SDS011;31958;51.756;-2.556;2023-01-29T05:12:51;8.85;;;5.20;;
45476;SDS011;31958;51.756;-2.556;2023-01-29T05:15:23;9.02;;;4.40;;
45476;SDS011;31958;51.756;-2.556;2023-01-29T05:17:53;19.92;;;5.68;;
45476;SDS011;31958;51.756;-2.556;2023-01-29T05:20:18;15.00;;;5.35;;
45476;SDS011;31958;51.756;-2.556;2023-01-29T05:22:44;11.13;;;5.05;;
45476;SDS011;31958;51.756;-2.556;2023-01-29T05:25:21;11.07;;;4.90;;
45476;SDS011;31958;51.756;-2.556;2023-01-29T05:27:49;14.90;;;5.00;;
45476;SDS011;31958;51.756;-2.556;2023-01-29T05:30:35;9.57;;;5.20;;
45476;SDS011;31958;51.756;-2.556;2023-01-29T05:33:01;10.50;;;5.43;;
45476;SDS011;31958;51.756;-2.556;2023-01-29T05:35:27;20.00;;;5.47;;
45476;SDS011;31958;51.756;-2.556;2023-01-29T05:37:54;17.55;;;5.90;;
45476;SDS011;31958;51.756;-2.556;2023-01-29T05:40:20;14.27;;;5.97;;
45476;SDS011;31958;51.756;-2.556;2023-01-29T05:42:46;12.02;;;5.65;;
45476;SDS011;31958;51.756;-2.556;2023-01-29T05:45:11;9.65;;;5.10;;
45476;SDS011;31958;51.756;-2.556;2023-01-29T05:47:37;9.77;;;4.40;;
45476;SDS011;31958;51.756;-2.556;2023-01-29T05:50:02;11.70;;;4.78;;
45476;SDS011;31958;51.756;-2.556;2023-01-29T05:52:28;9.77;;;4.32;;
45476;SDS011;31958;51.756;-2.556;2023-01-29T05:54:53;14.93;;;4.30;;
45476;SDS011;31958;51.756;-2.556;2023-01-29T05:57:18;8.18;;;4.65;;
45476;SDS011;31958;51.756;-2.556;2023-01-29T05:59:44;8.90;;;4.10;;
45476;SDS011;31958;51.756;-2.556;2023-01-29T06:02:09;12.35;;;4.60;;
45476;SDS011;31958;51.756;-2.556;2023-01-29T06:04:34;8.15;;;4.30;;
45476;SDS011;31958;51.756;-2.556;2023-01-29T06:07:00;8.20;;;4.00;;
45476;SDS011;31958;51.756;-2.556;2023-01-29T06:09:27;7.40;;;3.83;;
45476;SDS011;31958;51.756;-2.556;2023-01-29T06:11:53;9.70;;;3.80;;
45476;SDS011;31958;51.756;-2.556;2023-01-29T06:14:18;8.73;;;4.28;;
45476;SDS011;31958;51.756;-2.556;2023-01-29T06:16:44;6.63;;;3.60;;
45476;SDS011;31958;51.756;-2.556;2023-01-29T06:19:09;12.73;;;3.78;;
45476;SDS011;31958;51.756;-2.556;2023-01-29T06:21:35;6.40;;;3.88;;
45476;SDS011;31958;51.756;-2.556;2023-01-29T06:24:00;7.43;;;4.18;;
45476;SDS011;31958;51.756;-2.556;2023-01-29T06:26:25;10.45;;;3.95;;
45476;SDS011;31958;51.756;-2.556;2023-01-29T06:28:51;10.85;;;3.65;;
45476;SDS011;31958;51.756;-2.556;2023-01-29T06:31:16;7.65;;;4.30;;
45476;SDS011;31958;51.756;-2.556;2023-01-29T06:33:42;6.03;;;3.85;;
45476;SDS011;31958;51.756;-2.556;2023-01-29T06:36:08;6.45;;;3.50;;
45476;SDS011;31958;51.756;-2.556;2023-01-29T06:38:33;7.15;;;3.40;;
45476;SDS011;31958;51.756;-2.556;2023-01-29T06:40:59;8.20;;;3.75;;
45476;SDS011;31958;51.756;-2.556;2023-01-29T06:43:24;7.03;;;3.78;;
45476;SDS011;31958;51.756;-2.556;2023-01-29T06:45:51;5.95;;;3.60;;
45476;SDS011;31958;51.756;-2.556;2023-01-29T06:48:17;8.32;;;3.72;;
45476;SDS011;31958;51.756;-2.556;2023-01-29T06:50:43;6.50;;;3.75;;
45476;SDS011;31958;51.756;-2.556;2023-01-29T06:53:08;13.35;;;4.38;;
45476;SDS011;31958;51.756;-2.556;2023-01-29T06:55:34;5.80;;;3.45;;
45476;SDS011;31958;51.756;-2.556;2023-01-29T06:57:59;8.38;;;4.22;;
45476;SDS011;31958;51.756;-2.556;2023-01-29T07:00:29;10.27;;;3.95;;
45476;SDS011;31958;51.756;-2.556;2023-01-29T07:02:54;7.22;;;3.50;;
45476;SDS011;31958;51.756;-2.556;2023-01-29T07:05:20;7.38;;;3.97;;
45476;SDS011;31958;51.756;-2.556;2023-01-29T07:07:45;7.00;;;3.67;;
45476;SDS011;31958;51.756;-2.556;2023-01-29T07:10:10;7.80;;;3.55;;
45476;SDS011;31958;51.756;-2.556;2023-01-29T07:12:36;6.53;;;3.70;;
45476;SDS011;31958;51.756;-2.556;2023-01-29T07:15:01;6.28;;;3.92;;
45476;SDS011;31958;51.756;-2.556;2023-01-29T07:17:27;11.40;;;4.28;;
45476;SDS011;31958;51.756;-2.556;2023-01-29T07:19:52;5.57;;;3.50;;
45476;SDS011;31958;51.756;-2.556;2023-01-29T07:22:17;6.68;;;3.35;;
45476;SDS011;31958;51.756;-2.556;2023-01-29T07:24:43;6.70;;;3.70;;
45476;SDS011;31958;51.756;-2.556;2023-01-29T07:27:08;8.02;;;3.30;;
45476;SDS011;31958;51.756;-2.556;2023-01-29T07:29:33;9.82;;;3.85;;
45476;SDS011;31958;51.756;-2.556;2023-01-29T07:31:59;11.35;;;4.18;;
45476;SDS011;31958;51.756;-2.556;2023-01-29T07:34:24;6.05;;;3.70;;
45476;SDS011;31958;51.756;-2.556;2023-01-29T07:36:51;8.13;;;3.80;;
45476;SDS011;31958;51.756;-2.556;2023-01-29T07:39:18;7.57;;;3.42;;
45476;SDS011;31958;51.756;-2.556;2023-01-29T07:41:43;8.07;;;3.80;;
45476;SDS011;31958;51.756;-2.556;2023-01-29T07:44:08;8.90;;;3.90;;
45476;SDS011;31958;51.756;-2.556;2023-01-29T07:46:34;7.38;;;3.80;;
45476;SDS011;31958;51.756;-2.556;2023-01-29T07:48:59;8.13;;;3.88;;
45476;SDS011;31958;51.756;-2.556;2023-01-29T07:51:25;9.13;;;3.97;;
45476;SDS011;31958;51.756;-2.556;2023-01-29T07:53:50;9.07;;;3.70;;
45476;SDS011;31958;51.756;-2.556;2023-01-29T07:56:17;6.93;;;3.38;;
45476;SDS011;31958;51.756;-2.556;2023-01-29T07:58:42;9.13;;;3.80;;
45476;SDS011;31958;51.756;-2.556;2023-01-29T08:01:07;8.82;;;4.20;;
45476;SDS011;31958;51.756;-2.556;2023-01-29T08:03:33;7.65;;;4.07;;
45476;SDS011;31958;51.756;-2.556;2023-01-29T08:05:58;8.50;;;3.67;;
45476;SDS011;31958;51.756;-2.556;2023-01-29T08:08:24;8.88;;;3.55;;
45476;SDS011;31958;51.756;-2.556;2023-01-29T08:10:49;7.40;;;3.70;;
45476;SDS011;31958;51.756;-2.556;2023-01-29T08:13:15;8.20;;;4.07;;
45476;SDS011;31958;51.756;-2.556;2023-01-29T08:15:43;7.50;;;3.78;;
45476;SDS011;31958;51.756;-2.556;2023-01-29T08:18:09;7.20;;;3.95;;
45476;SDS011;31958;51.756;-2.556;2023-01-29T08:20:35;6.00;;;3.83;;
45476;SDS011;31958;51.756;-2.556;2023-01-29T08:23:01;7.45;;;3.10;;
45476;SDS011;31958;51.756;-2.556;2023-01-29T08:25:28;7.57;;;3.95;;
45476;SDS011;31958;51.756;-2.556;2023-01-29T08:27:54;9.40;;;4.05;;
45476;SDS011;31958;51.756;-2.556;2023-01-29T08:30:21;6.70;;;3.47;;
45476;SDS011;31958;51.756;-2.556;2023-01-29T08:32:47;11.60;;;3.35;;
45476;SDS011;31958;51.756;-2.556;2023-01-29T08:35:12;10.07;;;3.50;;
45476;SDS011;31958;51.756;-2.556;2023-01-29T08:37:38;11.50;;;3.88;;
45476;SDS011;31958;51.756;-2.556;2023-01-29T08:40:03;8.88;;;3.72;;
45476;SDS011;31958;51.756;-2.556;2023-01-29T08:42:29;8.20;;;3.40;;
45476;SDS011;31958;51.756;-2.556;2023-01-29T08:44:54;7.53;;;3.63;;
45476;SDS011;31958;51.756;-2.556;2023-01-29T08:47:20;7.13;;;3.53;;
45476;SDS011;31958;51.756;-2.556;2023-01-29T08:49:45;8.90;;;3.80;;
45476;SDS011;31958;51.756;-2.556;2023-01-29T08:52:11;10.02;;;3.42;;
45476;SDS011;31958;51.756;-2.556;2023-01-29T08:54:36;7.82;;;3.40;;
45476;SDS011;31958;51.756;-2.556;2023-01-29T08:57:02;9.13;;;3.55;;
45476;SDS011;31958;51.756;-2.556;2023-01-29T08:59:27;6.45;;;3.30;;
45476;SDS011;31958;51.756;-2.556;2023-01-29T09:01:53;10.23;;;3.50;;
45476;SDS011;31958;51.756;-2.556;2023-01-29T09:04:18;5.38;;;2.72;;
45476;SDS011;31958;51.756;-2.556;2023-01-29T09:06:43;5.28;;;2.63;;
45476;SDS011;31958;51.756;-2.556;2023-01-29T09:09:09;5.75;;;2.60;;
45476;SDS011;31958;51.756;-2.556;2023-01-29T09:11:35;5.68;;;3.00;;
45476;SDS011;31958;51.756;-2.556;2023-01-29T09:14:02;5.63;;;2.70;;
45476;SDS011;31958;51.756;-2.556;2023-01-29T09:16:27;5.25;;;2.67;;
45476;SDS011;31958;51.756;-2.556;2023-01-29T09:18:52;7.45;;;3.28;;
45476;SDS011;31958;51.756;-2.556;2023-01-29T09:21:18;8.02;;;2.80;;
45476;SDS011;31958;51.756;-2.556;2023-01-29T09:23:44;5.68;;;2.83;;
45476;SDS011;31958;51.756;-2.556;2023-01-29T09:26:09;4.80;;;2.90;;
45476;SDS011;31958;51.756;-2.556;2023-01-29T09:28:35;5.93;;;2.33;;
45476;SDS011;31958;51.756;-2.556;2023-01-29T09:31:00;5.22;;;2.88;;
45476;SDS011;31958;51.756;-2.556;2023-01-29T09:33:26;6.32;;;2.75;;
45476;SDS011;31958;51.756;-2.556;2023-01-29T09:35:52;6.57;;;2.85;;
45476;SDS011;31958;51.756;-2.556;2023-01-29T09:38:17;8.88;;;2.47;;
45476;SDS011;31958;51.756;-2.556;2023-01-29T09:43:17;7.85;;;3.58;;
45476;SDS011;31958;51.756;-2.556;2023-01-29T09:45:52;5.88;;;2.70;;
45476;SDS011;31958;51.756;-2.556;2023-01-29T09:49:05;5.78;;;2.75;;
45476;SDS011;31958;51.756;-2.556;2023-01-29T09:51:51;9.82;;;2.53;;
45476;SDS011;31958;51.756;-2.556;2023-01-29T09:54:22;4.13;;;2.08;;
45476;SDS011;31958;51.756;-2.556;2023-01-29T09:56:52;4.85;;;2.40;;
45476;SDS011;31958;51.756;-2.556;2023-01-29T09:59:21;5.82;;;2.47;;
45476;SDS011;31958;51.756;-2.556;2023-01-29T10:02:08;6.68;;;2.45;;
45476;SDS011;31958;51.756;-2.556;2023-01-29T10:13:10;9.48;;;3.90;;
45476;SDS011;31958;51.756;-2.556;2023-01-29T10:21:05;9.18;;;3.22;;
45476;SDS011;31958;51.756;-2.556;2023-01-29T10:23:34;6.93;;;3.90;;
45476;SDS011;31958;51.756;-2.556;2023-01-29T10:26:02;10.32;;;4.35;;
45476;SDS011;31958;51.756;-2.556;2023-01-29T10:28:33;7.35;;;4.72;;
45476;SDS011;31958;51.756;-2.556;2023-01-29T10:33:39;8.98;;;5.75;;
45476;SDS011;31958;51.756;-2.556;2023-01-29T10:36:12;9.40;;;5.20;;
45476;SDS011;31958;51.756;-2.556;2023-01-29T10:38:45;8.98;;;5.07;;
45476;SDS011;31958;51.756;-2.556;2023-01-29T10:54:24;10.05;;;4.95;;
45476;SDS011;31958;51.756;-2.556;2023-01-29T10:57:03;10.80;;;5.50;;
45476;SDS011;31958;51.756;-2.556;2023-01-29T11:01:59;10.50;;;5.68;;
45476;SDS011;31958;51.756;-2.556;2023-01-29T11:04:27;12.27;;;5.93;;
45476;SDS011;31958;51.756;-2.556;2023-01-29T11:06:52;12.23;;;6.38;;
45476;SDS011;31958;51.756;-2.556;2023-01-29T11:12:03;15.73;;;7.85;;
45476;SDS011;31958;51.756;-2.556;2023-01-29T11:14:51;11.75;;;6.63;;
45476;SDS011;31958;51.756;-2.556;2023-01-29T11:17:23;13.07;;;7.10;;
45476;SDS011;31958;51.756;-2.556;2023-01-29T11:19:50;19.42;;;7.80;;
45476;SDS011;31958;51.756;-2.556;2023-01-29T11:22:17;14.00;;;7.18;;
45476;SDS011;31958;51.756;-2.556;2023-01-29T11:27:38;14.20;;;8.55;;
45476;SDS011;31958;51.756;-2.556;2023-01-29T11:30:13;20.00;;;9.70;;
45476;SDS011;31958;51.756;-2.556;2023-01-29T11:32:40;14.82;;;8.30;;
45476;SDS011;31958;51.756;-2.556;2023-01-29T11:37:40;17.42;;;8.25;;
45476;SDS011;31958;51.756;-2.556;2023-01-29T11:42:48;8.10;;;5.18;;
45476;SDS011;31958;51.756;-2.556;2023-01-29T11:45:26;10.00;;;5.28;;
45476;SDS011;31958;51.756;-2.556;2023-01-29T11:47:56;7.25;;;4.55;;
45476;SDS011;31958;51.756;-2.556;2023-01-29T11:50:23;8.15;;;4.30;;
45476;SDS011;31958;51.756;-2.556;2023-01-29T11:52:52;5.68;;;3.63;;
45476;SDS011;31958;51.756;-2.556;2023-01-29T11:55:21;6.00;;;4.07;;
45476;SDS011;31958;51.756;-2.556;2023-01-29T11:58:01;6.85;;;4.20;;
45476;SDS011;31958;51.756;-2.556;2023-01-29T12:00:35;6.60;;;3.67;;
45476;SDS011;31958;51.756;-2.556;2023-01-29T12:06:17;4.73;;;2.90;;
45476;SDS011;31958;51.756;-2.556;2023-01-29T12:08:57;7.05;;;4.00;;
45476;SDS011;31958;51.756;-2.556;2023-01-29T12:11:27;5.72;;;3.22;;
45476;SDS011;31958;51.756;-2.556;2023-01-29T12:13:58;6.32;;;3.45;;
45476;SDS011;31958;51.756;-2.556;2023-01-29T12:16:47;9.90;;;5.25;;
45476;SDS011;31958;51.756;-2.556;2023-01-29T12:19:27;7.65;;;3.30;;
45476;SDS011;31958;51.756;-2.556;2023-01-29T12:25:06;3.08;;;1.95;;
45476;SDS011;31958;51.756;-2.556;2023-01-29T12:27:45;3.53;;;2.10;;
45476;SDS011;31958;51.756;-2.556;2023-01-29T12:30:16;3.63;;;2.10;;
45476;SDS011;31958;51.756;-2.556;2023-01-29T12:37:51;4.72;;;2.22;;
45476;SDS011;31958;51.756;-2.556;2023-01-29T12:40:28;2.55;;;1.27;;
45476;SDS011;31958;51.756;-2.556;2023-01-29T12:42:59;2.47;;;1.50;;
45476;SDS011;31958;51.756;-2.556;2023-01-29T12:45:28;3.47;;;1.17;;
45476;SDS011;31958;51.756;-2.556;2023-01-29T12:47:59;1.83;;;1.00;;
45476;SDS011;31958;51.756;-2.556;2023-01-29T12:50:27;1.73;;;0.90;;
45476;SDS011;31958;51.756;-2.556;2023-01-29T12:52:57;1.77;;;1.00;;
45476;SDS011;31958;51.756;-2.556;2023-01-29T12:55:25;2.53;;;1.20;;
45476;SDS011;31958;51.756;-2.556;2023-01-29T12:57:56;2.53;;;1.20;;
45476;SDS011;31958;51.756;-2.556;2023-01-29T13:00:24;3.25;;;1.10;;
45476;SDS011;31958;51.756;-2.556;2023-01-29T13:08:38;3.30;;;1.40;;
45476;SDS011;31958;51.756;-2.556;2023-01-29T13:11:11;2.90;;;1.48;;
45476;SDS011;31958;51.756;-2.556;2023-01-29T13:13:46;2.70;;;1.40;;
45476;SDS011;31958;51.756;-2.556;2023-01-29T13:16:18;2.00;;;1.00;;
45476;SDS011;31958;51.756;-2.556;2023-01-29T13:18:55;2.90;;;1.35;;
45476;SDS011;31958;51.756;-2.556;2023-01-29T13:21:22;3.03;;;1.50;;
45476;SDS011;31958;51.756;-2.556;2023-01-29T13:23:56;3.30;;;1.45;;
45476;SDS011;31958;51.756;-2.556;2023-01-29T13:26:25;2.33;;;1.10;;
45476;SDS011;31958;51.756;-2.556;2023-01-29T13:28:52;2.47;;;1.17;;
45476;SDS011;31958;51.756;-2.556;2023-01-29T13:31:21;3.67;;;1.20;;
45476;SDS011;31958;51.756;-2.556;2023-01-29T13:33:51;2.03;;;0.80;;
45476;SDS011;31958;51.756;-2.556;2023-01-29T13:36:24;3.05;;;1.00;;
45476;SDS011;31958;51.756;-2.556;2023-01-29T13:38:56;2.17;;;0.98;;
45476;SDS011;31958;51.756;-2.556;2023-01-29T13:41:35;2.70;;;0.90;;
45476;SDS011;31958;51.756;-2.556;2023-01-29T13:44:03;2.65;;;0.90;;
45476;SDS011;31958;51.756;-2.556;2023-01-29T13:46:29;2.35;;;1.10;;
45476;SDS011;31958;51.756;-2.556;2023-01-29T13:48:56;2.00;;;0.95;;
45476;SDS011;31958;51.756;-2.556;2023-01-29T13:51:31;2.13;;;0.90;;
45476;SDS011;31958;51.756;-2.556;2023-01-29T13:54:00;1.63;;;0.88;;
45476;SDS011;31958;51.756;-2.556;2023-01-29T13:58:57;1.50;;;0.70;;
45476;SDS011;31958;51.756;-2.556;2023-01-29T14:04:31;1.52;;;0.80;;
45476;SDS011;31958;51.756;-2.556;2023-01-29T14:06:57;2.38;;;0.80;;
45476;SDS011;31958;51.756;-2.556;2023-01-29T14:09:33;1.35;;;0.80;;
45476;SDS011;31958;51.756;-2.556;2023-01-29T14:17:16;2.83;;;0.90;;
45476;SDS011;31958;51.756;-2.556;2023-01-29T14:19:49;1.33;;;0.85;;
45476;SDS011;31958;51.756;-2.556;2023-01-29T14:22:23;1.90;;;1.00;;
45476;SDS011;31958;51.756;-2.556;2023-01-29T14:24:59;2.50;;;0.90;;
45476;SDS011;31958;51.756;-2.556;2023-01-29T14:27:27;2.55;;;1.10;;
45476;SDS011;31958;51.756;-2.556;2023-01-29T14:30:00;1.92;;;1.10;;
45476;SDS011;31958;51.756;-2.556;2023-01-29T14:32:37;2.80;;;1.00;;
45476;SDS011;31958;51.756;-2.556;2023-01-29T14:35:04;1.80;;;1.00;;
45476;SDS011;31958;51.756;-2.556;2023-01-29T14:37:55;1.70;;;1.00;;
45476;SDS011;31958;51.756;-2.556;2023-01-29T14:40:23;1.60;;;0.90;;
45476;SDS011;31958;51.756;-2.556;2023-01-29T14:43:15;1.35;;;0.85;;
45476;SDS011;31958;51.756;-2.556;2023-01-29T14:45:46;2.83;;;0.95;;
45476;SDS011;31958;51.756;-2.556;2023-01-29T14:48:18;3.50;;;1.20;;
45476;SDS011;31958;51.756;-2.556;2023-01-29T14:51:04;1.90;;;1.02;;
45476;SDS011;31958;51.756;-2.556;2023-01-29T14:56:55;1.58;;;0.90;;
45476;SDS011;31958;51.756;-2.556;2023-01-29T14:59:32;1.85;;;0.88;;
45476;SDS011;31958;51.756;-2.556;2023-01-29T15:02:03;4.40;;;1.00;;
45476;SDS011;31958;51.756;-2.556;2023-01-29T15:04:40;2.83;;;1.02;;
45476;SDS011;31958;51.756;-2.556;2023-01-29T15:09:38;1.90;;;1.13;;
45476;SDS011;31958;51.756;-2.556;2023-01-29T15:15:13;1.05;;;0.70;;
45476;SDS011;31958;51.756;-2.556;2023-01-29T15:18:13;2.00;;;1.00;;
45476;SDS011;31958;51.756;-2.556;2023-01-29T15:20:42;1.65;;;0.80;;
45476;SDS011;31958;51.756;-2.556;2023-01-29T15:25:59;2.08;;;1.10;;
45476;SDS011;31958;51.756;-2.556;2023-01-29T15:28:29;2.80;;;1.08;;
45476;SDS011;31958;51.756;-2.556;2023-01-29T15:30:58;3.60;;;1.77;;
45476;SDS011;31958;51.756;-2.556;2023-01-29T15:33:25;2.13;;;1.10;;
45476;SDS011;31958;51.756;-2.556;2023-01-29T15:35:54;1.88;;;0.98;;
45476;SDS011;31958;51.756;-2.556;2023-01-29T15:38:22;1.98;;;0.93;;
45476;SDS011;31958;51.756;-2.556;2023-01-29T15:41:32;2.63;;;1.38;;
45476;SDS011;31958;51.756;-2.556;2023-01-29T15:43:44;3.42;;;1.00;;
45476;SDS011;31958;51.756;-2.556;2023-01-29T15:46:15;2.45;;;1.20;;
45476;SDS011;31958;51.756;-2.556;2023-01-29T15:48:45;2.10;;;1.10;;
45476;SDS011;31958;51.756;-2.556;2023-01-29T15:51:16;2.35;;;1.13;;
45476;SDS011;31958;51.756;-2.556;2023-01-29T15:54:20;2.75;;;1.40;;
45476;SDS011;31958;51.756;-2.556;2023-01-29T15:56:40;2.80;;;1.20;;
45476;SDS011;31958;51.756;-2.556;2023-01-29T15:59:12;3.53;;;1.60;;
45476;SDS011;31958;51.756;-2.556;2023-01-29T16:01:40;2.35;;;1.48;;
45476;SDS011;31958;51.756;-2.556;2023-01-29T16:04:08;3.20;;;1.80;;
45476;SDS011;31958;51.756;-2.556;2023-01-29T16:06:38;2.00;;;1.10;;
45476;SDS011;31958;51.756;-2.556;2023-01-29T16:09:04;4.55;;;2.83;;
45476;SDS011;31958;51.756;-2.556;2023-01-29T16:11:30;2.60;;;1.15;;
45476;SDS011;31958;51.756;-2.556;2023-01-29T16:13:56;3.13;;;1.60;;
45476;SDS011;31958;51.756;-2.556;2023-01-29T16:16:22;3.50;;;2.00;;
45476;SDS011;31958;51.756;-2.556;2023-01-29T16:18:49;5.85;;;2.58;;
45476;SDS011;31958;51.756;-2.556;2023-01-29T16:23:49;5.25;;;2.17;;
45476;SDS011;31958;51.756;-2.556;2023-01-29T16:26:20;4.43;;;2.40;;
45476;SDS011;31958;51.756;-2.556;2023-01-29T16:28:48;10.25;;;3.83;;
45476;SDS011;31958;51.756;-2.556;2023-01-29T16:31:19;7.43;;;3.33;;
45476;SDS011;31958;51.756;-2.556;2023-01-29T16:33:49;6.65;;;3.22;;
45476;SDS011;31958;51.756;-2.556;2023-01-29T16:38:51;7.88;;;3.22;;
45476;SDS011;31958;51.756;-2.556;2023-01-29T16:43:50;7.15;;;3.42;;
45476;SDS011;31958;51.756;-2.556;2023-01-29T16:46:18;11.57;;;3.70;;
45476;SDS011;31958;51.756;-2.556;2023-01-29T16:48:48;7.70;;;3.45;;
45476;SDS011;31958;51.756;-2.556;2023-01-29T16:51:16;9.43;;;3.83;;
45476;SDS011;31958;51.756;-2.556;2023-01-29T16:54:08;7.65;;;3.38;;
45476;SDS011;31958;51.756;-2.556;2023-01-29T16:56:36;5.88;;;2.80;;
45476;SDS011;31958;51.756;-2.556;2023-01-29T16:59:02;5.95;;;2.75;;
45476;SDS011;31958;51.756;-2.556;2023-01-29T17:01:28;3.67;;;2.00;;
45476;SDS011;31958;51.756;-2.556;2023-01-29T17:03:56;5.18;;;2.42;;
45476;SDS011;31958;51.756;-2.556;2023-01-29T17:06:24;4.43;;;2.13;;
45476;SDS011;31958;51.756;-2.556;2023-01-29T17:08:50;4.07;;;2.20;;
45476;SDS011;31958;51.756;-2.556;2023-01-29T17:11:35;4.95;;;2.65;;
45476;SDS011;31958;51.756;-2.556;2023-01-29T17:14:03;4.78;;;1.90;;
45476;SDS011;31958;51.756;-2.556;2023-01-29T17:16:31;3.85;;;2.28;;
45476;SDS011;31958;51.756;-2.556;2023-01-29T17:18:59;3.20;;;1.90;;